sensor_id;sensor_type;location;lat;lon;timestamp;pressure;altitude;pressure_sealevel;temperature;humidity
8573;BME280;4324;42.012;24.872;2023-05-10T00:01:37;99374.97;;;12.95;73.94
8573;BME280;4324;42.012;24.872;2023-05-10T00:04:04;99348.75;;;12.84;73.14
8573;BME280;4324;42.012;24.872;2023-05-10T00:06:31;99345.09;;;12.85;72.69
8573;BME280;4324;42.012;24.872;2023-05-10T00:08:58;99324.72;;;12.69;73.07
8573;BME280;4324;42.012;24.872;2023-05-10T00:11:25;99357.03;;;12.89;74.06
8573;BME280;4324;42.012;24.872;2023-05-10T00:13:52;99356.38;;;12.87;74.07
8573;BME280;4324;42.012;24.872;2023-05-10T00:16:19;99348.75;;;12.84;73.07
8573;BME280;4324;42.012;24.872;2023-05-10T00:18:47;99328.22;;;12.70;72.29
8573;BME280;4324;42.012;24.872;2023-05-10T00:21:14;99368.00;;;12.94;72.70
8573;BME280;4324;42.012;24.872;2023-05-10T00:23:41;99343.44;;;12.84;73.30
8573;BME280;4324;42.012;24.872;2023-05-10T00:26:08;99355.69;;;12.93;72.63
8573;BME280;4324;42.012;24.872;2023-05-10T00:28:35;99357.34;;;12.94;72.08
8573;BME280;4324;42.012;24.872;2023-05-10T00:31:02;99347.75;;;12.85;71.95
8573;BME280;4324;42.012;24.872;2023-05-10T00:33:29;99358.69;;;12.90;72.23
8573;BME280;4324;42.012;24.872;2023-05-10T00:35:57;99357.84;;;12.90;72.54
8573;BME280;4324;42.012;24.872;2023-05-10T00:38:24;99357.84;;;12.90;71.85
8573;BME280;4324;42.012;24.872;2023-05-10T00:40:51;99359.88;;;12.88;71.30
8573;BME280;4324;42.012;24.872;2023-05-10T00:43:18;99339.47;;;12.72;72.02
8573;BME280;4324;42.012;24.872;2023-05-10T00:45:45;99288.13;;;12.40;72.06
8573;BME280;4324;42.012;24.872;2023-05-10T00:48:13;99350.75;;;12.82;72.02
8573;BME280;4324;42.012;24.872;2023-05-10T00:50:40;99275.84;;;12.31;70.68
8573;BME280;4324;42.012;24.872;2023-05-10T00:53:08;99295.56;;;12.45;70.39
8573;BME280;4324;42.012;24.872;2023-05-10T00:55:36;99333.88;;;12.58;70.82
8573;BME280;4324;42.012;24.872;2023-05-10T00:58:03;99355.44;;;12.64;70.60
8573;BME280;4324;42.012;24.872;2023-05-10T01:00:32;99332.09;;;12.51;70.22
8573;BME280;4324;42.012;24.872;2023-05-10T01:02:59;99326.28;;;12.47;69.85
8573;BME280;4324;42.012;24.872;2023-05-10T01:05:27;99338.25;;;12.43;70.27
8573;BME280;4324;42.012;24.872;2023-05-10T01:07:54;99351.50;;;12.51;70.30
8573;BME280;4324;42.012;24.872;2023-05-10T01:10:22;99327.13;;;12.40;70.36
8573;BME280;4324;42.012;24.872;2023-05-10T01:12:49;99334.28;;;12.39;70.13
8573;BME280;4324;42.012;24.872;2023-05-10T01:15:17;99343.88;;;12.48;70.17
8573;BME280;4324;42.012;24.872;2023-05-10T01:17:46;99324.00;;;12.36;71.38
8573;BME280;4324;42.012;24.872;2023-05-10T01:20:14;99349.00;;;12.58;71.15
8573;BME280;4324;42.012;24.872;2023-05-10T01:23:23;99337.88;;;12.54;70.27
8573;BME280;4324;42.012;24.872;2023-05-10T01:26:22;99345.53;;;12.57;70.11
8573;BME280;4324;42.012;24.872;2023-05-10T01:29:23;99350.84;;;12.57;70.61
8573;BME280;4324;42.012;24.872;2023-05-10T01:32:15;99348.19;;;12.57;70.50
8573;BME280;4324;42.012;24.872;2023-05-10T01:34:51;99323.31;;;12.42;69.94
8573;BME280;4324;42.012;24.872;2023-05-10T01:37:22;99339.38;;;12.49;69.39
8573;BME280;4324;42.012;24.872;2023-05-10T01:40:00;99346.88;;;12.53;69.85
8573;BME280;4324;42.012;24.872;2023-05-10T01:42:34;99295.28;;;12.23;70.13
8573;BME280;4324;42.012;24.872;2023-05-10T01:45:11;99354.63;;;12.63;69.80
8573;BME280;4324;42.012;24.872;2023-05-10T01:47:44;99351.97;;;12.63;69.07
8573;BME280;4324;42.012;24.872;2023-05-10T01:50:17;99335.88;;;12.56;69.32
8573;BME280;4324;42.012;24.872;2023-05-10T01:52:49;99343.34;;;12.61;70.12
8573;BME280;4324;42.012;24.872;2023-05-10T01:55:18;99305.41;;;12.36;70.08
8573;BME280;4324;42.012;24.872;2023-05-10T01:57:49;99332.56;;;12.54;69.36
8573;BME280;4324;42.012;24.872;2023-05-10T02:00:18;99236.81;;;11.92;69.70
8573;BME280;4324;42.012;24.872;2023-05-10T02:02:49;99353.66;;;12.56;70.00
8573;BME280;4324;42.012;24.872;2023-05-10T02:05:17;99330.63;;;12.40;69.73
8573;BME280;4324;42.012;24.872;2023-05-10T02:07:46;99341.44;;;12.39;69.51
8573;BME280;4324;42.012;24.872;2023-05-10T02:10:14;99299.63;;;12.08;69.36
8573;BME280;4324;42.012;24.872;2023-05-10T02:12:43;99311.09;;;12.08;69.62
8573;BME280;4324;42.012;24.872;2023-05-10T02:15:17;99357.00;;;12.33;70.25
8573;BME280;4324;42.012;24.872;2023-05-10T02:17:47;99337.28;;;12.28;70.44
8573;BME280;4324;42.012;24.872;2023-05-10T02:20:16;99355.34;;;12.41;69.89
8573;BME280;4324;42.012;24.872;2023-05-10T02:22:45;99339.44;;;12.32;69.54
8573;BME280;4324;42.012;24.872;2023-05-10T02:25:14;99353.03;;;12.38;69.85
8573;BME280;4324;42.012;24.872;2023-05-10T02:27:42;99346.06;;;12.37;69.80
8573;BME280;4324;42.012;24.872;2023-05-10T02:30:11;99232.00;;;11.63;69.87
8573;BME280;4324;42.012;24.872;2023-05-10T02:32:38;99292.53;;;12.00;69.67
8573;BME280;4324;42.012;24.872;2023-05-10T02:35:08;99347.09;;;12.27;69.65
8573;BME280;4324;42.012;24.872;2023-05-10T02:37:37;99338.28;;;12.19;69.51
8573;BME280;4324;42.012;24.872;2023-05-10T02:40:06;99341.94;;;12.26;70.09
8573;BME280;4324;42.012;24.872;2023-05-10T02:42:37;99339.59;;;12.23;69.29
8573;BME280;4324;42.012;24.872;2023-05-10T02:45:08;99355.53;;;12.23;68.95
8573;BME280;4324;42.012;24.872;2023-05-10T02:47:37;99319.38;;;11.97;69.61
8573;BME280;4324;42.012;24.872;2023-05-10T02:50:06;99324.38;;;12.00;69.67
8573;BME280;4324;42.012;24.872;2023-05-10T02:52:39;99297.53;;;11.87;69.93
8573;BME280;4324;42.012;24.872;2023-05-10T02:55:09;99315.75;;;11.90;69.10
8573;BME280;4324;42.012;24.872;2023-05-10T02:57:41;99330.34;;;12.02;68.96
8573;BME280;4324;42.012;24.872;2023-05-10T03:00:09;99348.59;;;12.05;69.63
8573;BME280;4324;42.012;24.872;2023-05-10T03:02:36;99330.19;;;11.88;69.31
8573;BME280;4324;42.012;24.872;2023-05-10T03:05:03;99357.53;;;12.04;69.26
8573;BME280;4324;42.012;24.872;2023-05-10T03:07:32;99323.03;;;11.80;69.05
8573;BME280;4324;42.012;24.872;2023-05-10T03:10:00;99333.66;;;11.88;69.43
8573;BME280;4324;42.012;24.872;2023-05-10T03:12:33;99353.06;;;11.97;69.53
8573;BME280;4324;42.012;24.872;2023-05-10T03:15:12;99354.91;;;11.96;69.59
8573;BME280;4324;42.012;24.872;2023-05-10T03:17:45;99260.84;;;11.42;69.70
8573;BME280;4324;42.012;24.872;2023-05-10T03:20:21;99351.91;;;11.99;68.88
8573;BME280;4324;42.012;24.872;2023-05-10T03:22:52;99340.63;;;11.97;69.42
8573;BME280;4324;42.012;24.872;2023-05-10T03:25:21;99326.34;;;11.82;69.59
8573;BME280;4324;42.012;24.872;2023-05-10T03:27:49;99352.56;;;12.01;69.34
8573;BME280;4324;42.012;24.872;2023-05-10T03:30:18;99360.38;;;12.03;69.24
8573;BME280;4324;42.012;24.872;2023-05-10T03:32:46;99349.25;;;11.91;68.91
8573;BME280;4324;42.012;24.872;2023-05-10T03:35:13;99341.97;;;11.85;69.11
8573;BME280;4324;42.012;24.872;2023-05-10T03:37:40;99342.25;;;11.82;69.03
8573;BME280;4324;42.012;24.872;2023-05-10T03:40:09;99357.22;;;11.91;68.87
8573;BME280;4324;42.012;24.872;2023-05-10T03:42:36;99359.56;;;11.94;68.91
8573;BME280;4324;42.012;24.872;2023-05-10T03:45:04;99364.84;;;11.94;68.81
8573;BME280;4324;42.012;24.872;2023-05-10T03:47:31;99365.84;;;11.93;68.94
8573;BME280;4324;42.012;24.872;2023-05-10T03:49:58;99298.13;;;11.48;69.35
8573;BME280;4324;42.012;24.872;2023-05-10T03:52:25;99354.41;;;11.93;68.83
8573;BME280;4324;42.012;24.872;2023-05-10T03:54:52;99374.16;;;11.98;68.65
8573;BME280;4324;42.012;24.872;2023-05-10T03:57:20;99371.31;;;12.00;69.03
8573;BME280;4324;42.012;24.872;2023-05-10T03:59:47;99344.78;;;11.83;69.33
8573;BME280;4324;42.012;24.872;2023-05-10T04:02:14;99358.69;;;11.94;69.01
8573;BME280;4324;42.012;24.872;2023-05-10T04:04:41;99376.47;;;12.09;68.88
8573;BME280;4324;42.012;24.872;2023-05-10T04:07:08;99357.22;;;11.91;68.97
8573;BME280;4324;42.012;24.872;2023-05-10T04:09:35;99382.44;;;12.03;69.92
8573;BME280;4324;42.012;24.872;2023-05-10T04:12:03;99370.81;;;11.96;69.54
8573;BME280;4324;42.012;24.872;2023-05-10T04:14:31;99381.75;;;12.01;70.07
8573;BME280;4324;42.012;24.872;2023-05-10T04:16:58;99375.13;;;11.97;69.69
8573;BME280;4324;42.012;24.872;2023-05-10T04:19:29;99387.09;;;12.09;70.33
8573;BME280;4324;42.012;24.872;2023-05-10T04:21:55;99394.72;;;12.21;70.57
8573;BME280;4324;42.012;24.872;2023-05-10T04:24:22;99392.03;;;12.29;70.68
8573;BME280;4324;42.012;24.872;2023-05-10T04:26:50;99328.19;;;11.90;69.37
8573;BME280;4324;42.012;24.872;2023-05-10T04:29:17;99379.28;;;12.24;68.96
8573;BME280;4324;42.012;24.872;2023-05-10T04:31:45;99358.19;;;12.15;69.83
8573;BME280;4324;42.012;24.872;2023-05-10T04:34:12;99353.22;;;12.20;69.99
8573;BME280;4324;42.012;24.872;2023-05-10T04:36:39;99349.22;;;12.32;70.46
8573;BME280;4324;42.012;24.872;2023-05-10T04:39:05;99348.88;;;12.43;70.14
8573;BME280;4324;42.012;24.872;2023-05-10T04:41:32;99389.13;;;12.79;69.73
8573;BME280;4324;42.012;24.872;2023-05-10T04:43:59;99382.97;;;12.79;69.68
8573;BME280;4324;42.012;24.872;2023-05-10T04:46:26;99390.25;;;12.85;69.43
8573;BME280;4324;42.012;24.872;2023-05-10T04:48:54;99403.56;;;12.85;69.30
8573;BME280;4324;42.012;24.872;2023-05-10T04:51:21;99383.66;;;12.73;68.90
8573;BME280;4324;42.012;24.872;2023-05-10T04:53:48;99393.47;;;12.72;69.22
8573;BME280;4324;42.012;24.872;2023-05-10T04:56:15;99378.69;;;12.70;69.02
8573;BME280;4324;42.012;24.872;2023-05-10T04:58:42;99316.06;;;12.28;68.59
8573;BME280;4324;42.012;24.872;2023-05-10T05:01:09;99369.44;;;12.57;68.19
8573;BME280;4324;42.012;24.872;2023-05-10T05:03:36;99402.28;;;12.73;68.50
8573;BME280;4324;42.012;24.872;2023-05-10T05:06:05;99349.22;;;12.40;68.32
8573;BME280;4324;42.012;24.872;2023-05-10T05:08:32;99396.25;;;12.79;69.09
8573;BME280;4324;42.012;24.872;2023-05-10T05:10:59;99399.22;;;12.92;69.43
8573;BME280;4324;42.012;24.872;2023-05-10T05:13:26;99405.31;;;13.01;69.27
8573;BME280;4324;42.012;24.872;2023-05-10T05:15:53;99402.50;;;13.02;69.27
8573;BME280;4324;42.012;24.872;2023-05-10T05:18:20;99382.22;;;13.01;69.47
8573;BME280;4324;42.012;24.872;2023-05-10T05:20:47;99414.75;;;13.28;69.96
8573;BME280;4324;42.012;24.872;2023-05-10T05:23:15;99408.38;;;13.37;69.82
8573;BME280;4324;42.012;24.872;2023-05-10T05:25:42;99409.66;;;13.41;68.93
8573;BME280;4324;42.012;24.872;2023-05-10T05:28:09;99371.53;;;13.18;68.70
8573;BME280;4324;42.012;24.872;2023-05-10T05:30:36;99384.13;;;13.32;68.80
8573;BME280;4324;42.012;24.872;2023-05-10T05:33:03;99386.25;;;13.37;69.03
8573;BME280;4324;42.012;24.872;2023-05-10T05:35:30;99394.66;;;13.48;68.82
8573;BME280;4324;42.012;24.872;2023-05-10T05:37:57;99390.31;;;13.55;68.34
8573;BME280;4324;42.012;24.872;2023-05-10T05:40:26;99390.78;;;13.59;68.12
8573;BME280;4324;42.012;24.872;2023-05-10T05:42:53;99413.97;;;13.73;68.36
8573;BME280;4324;42.012;24.872;2023-05-10T05:45:20;99404.44;;;13.79;68.74
8573;BME280;4324;42.012;24.872;2023-05-10T05:47:47;99408.84;;;13.95;68.60
8573;BME280;4324;42.012;24.872;2023-05-10T05:50:14;99367.03;;;13.80;68.20
8573;BME280;4324;42.012;24.872;2023-05-10T05:52:41;99395.94;;;14.07;67.88
8573;BME280;4324;42.012;24.872;2023-05-10T05:55:10;99411.50;;;14.18;67.70
8573;BME280;4324;42.012;24.872;2023-05-10T05:57:38;99421.44;;;14.24;68.15
8573;BME280;4324;42.012;24.872;2023-05-10T06:00:06;99421.72;;;14.29;67.84
8573;BME280;4324;42.012;24.872;2023-05-10T06:02:34;99391.00;;;14.18;67.05
8573;BME280;4324;42.012;24.872;2023-05-10T06:05:00;99407.38;;;14.30;66.44
8573;BME280;4324;42.012;24.872;2023-05-10T06:07:28;99390.81;;;14.20;66.42
8573;BME280;4324;42.012;24.872;2023-05-10T06:09:55;99363.31;;;14.04;66.19
8573;BME280;4324;42.012;24.872;2023-05-10T06:12:22;99413.09;;;14.42;66.44
8573;BME280;4324;42.012;24.872;2023-05-10T06:14:54;99412.69;;;14.53;66.22
8573;BME280;4324;42.012;24.872;2023-05-10T06:17:20;99406.38;;;14.54;65.43
8573;BME280;4324;42.012;24.872;2023-05-10T06:19:48;99397.59;;;14.45;65.42
8573;BME280;4324;42.012;24.872;2023-05-10T06:22:15;99410.56;;;14.48;64.71
8573;BME280;4324;42.012;24.872;2023-05-10T06:24:42;99399.69;;;14.35;64.24
8573;BME280;4324;42.012;24.872;2023-05-10T06:27:09;99395.75;;;14.46;64.06
8573;BME280;4324;42.012;24.872;2023-05-10T06:29:36;99415.94;;;14.63;64.00
8573;BME280;4324;42.012;24.872;2023-05-10T06:32:04;99410.72;;;14.70;63.15
8573;BME280;4324;42.012;24.872;2023-05-10T06:34:31;99412.19;;;14.72;62.72
8573;BME280;4324;42.012;24.872;2023-05-10T06:36:58;99378.72;;;14.55;62.50
8573;BME280;4324;42.012;24.872;2023-05-10T06:39:25;99412.94;;;14.81;62.66
8573;BME280;4324;42.012;24.872;2023-05-10T06:41:52;99406.88;;;14.87;62.80
8573;BME280;4324;42.012;24.872;2023-05-10T06:44:19;99410.16;;;14.89;63.12
8573;BME280;4324;42.012;24.872;2023-05-10T06:46:46;99414.00;;;15.01;63.55
8573;BME280;4324;42.012;24.872;2023-05-10T06:49:15;99402.72;;;15.14;63.72
8573;BME280;4324;42.012;24.872;2023-05-10T06:51:42;99408.47;;;15.33;63.75
8573;BME280;4324;42.012;24.872;2023-05-10T06:54:09;99412.16;;;15.46;63.70
8573;BME280;4324;42.012;24.872;2023-05-10T06:56:36;99418.28;;;15.62;63.69
8573;BME280;4324;42.012;24.872;2023-05-10T06:59:03;99404.56;;;15.65;63.91
8573;BME280;4324;42.012;24.872;2023-05-10T07:01:30;99404.09;;;15.76;63.74
8573;BME280;4324;42.012;24.872;2023-05-10T07:03:57;99403.06;;;15.77;63.46
8573;BME280;4324;42.012;24.872;2023-05-10T07:06:26;99388.00;;;15.69;63.77
8573;BME280;4324;42.012;24.872;2023-05-10T07:08:53;99339.69;;;15.49;63.87
8573;BME280;4324;42.012;24.872;2023-05-10T07:11:20;99408.41;;;15.99;63.65
8573;BME280;4324;42.012;24.872;2023-05-10T07:13:47;99418.81;;;15.93;63.80
8573;BME280;4324;42.012;24.872;2023-05-10T07:16:13;99416.81;;;15.95;64.18
8573;BME280;4324;42.012;24.872;2023-05-10T07:18:41;99421.03;;;15.90;63.99
8573;BME280;4324;42.012;24.872;2023-05-10T07:21:08;99418.63;;;15.73;64.03
8573;BME280;4324;42.012;24.872;2023-05-10T07:23:36;99428.94;;;15.77;64.14
8573;BME280;4324;42.012;24.872;2023-05-10T07:26:03;99328.47;;;15.18;64.16
8573;BME280;4324;42.012;24.872;2023-05-10T07:28:30;99416.53;;;15.69;64.22
8573;BME280;4324;42.012;24.872;2023-05-10T07:30:57;99411.69;;;15.43;64.20
8573;BME280;4324;42.012;24.872;2023-05-10T07:33:24;99435.13;;;15.47;64.55
8573;BME280;4324;42.012;24.872;2023-05-10T07:35:51;99426.31;;;15.47;64.60
8573;BME280;4324;42.012;24.872;2023-05-10T07:38:18;99430.34;;;15.58;64.18
8573;BME280;4324;42.012;24.872;2023-05-10T07:40:47;99437.81;;;15.47;64.19
8573;BME280;4324;42.012;24.872;2023-05-10T07:43:14;99441.97;;;15.50;64.77
8573;BME280;4324;42.012;24.872;2023-05-10T07:45:41;99438.97;;;15.60;64.29
8573;BME280;4324;42.012;24.872;2023-05-10T07:48:08;99444.38;;;15.81;63.89
8573;BME280;4324;42.012;24.872;2023-05-10T07:50:35;99431.47;;;15.85;63.31
8573;BME280;4324;42.012;24.872;2023-05-10T07:53:02;99453.41;;;16.02;63.15
8573;BME280;4324;42.012;24.872;2023-05-10T07:55:29;99451.47;;;16.10;63.11
8573;BME280;4324;42.012;24.872;2023-05-10T07:57:57;99399.97;;;15.95;62.89
8573;BME280;4324;42.012;24.872;2023-05-10T08:00:26;99453.03;;;16.48;62.85
8573;BME280;4324;42.012;24.872;2023-05-10T08:02:53;99458.63;;;16.53;62.34
8573;BME280;4324;42.012;24.872;2023-05-10T08:05:20;99453.41;;;16.44;62.01
8573;BME280;4324;42.012;24.872;2023-05-10T08:07:47;99449.78;;;16.31;61.78
8573;BME280;4324;42.012;24.872;2023-05-10T08:10:14;99453.19;;;16.39;62.03
8573;BME280;4324;42.012;24.872;2023-05-10T08:12:41;99445.84;;;16.48;61.99
8573;BME280;4324;42.012;24.872;2023-05-10T08:15:10;99463.06;;;16.67;61.93
8573;BME280;4324;42.012;24.872;2023-05-10T08:17:40;99465.28;;;16.85;61.51
8573;BME280;4324;42.012;24.872;2023-05-10T08:20:08;99460.59;;;16.93;61.16
8573;BME280;4324;42.012;24.872;2023-05-10T08:22:37;99456.66;;;16.89;60.96
8573;BME280;4324;42.012;24.872;2023-05-10T08:25:05;99436.00;;;16.77;61.09
8573;BME280;4324;42.012;24.872;2023-05-10T08:27:32;99464.34;;;16.99;60.72
8573;BME280;4324;42.012;24.872;2023-05-10T08:29:59;99440.13;;;16.79;60.55
8573;BME280;4324;42.012;24.872;2023-05-10T08:32:27;99440.13;;;16.79;60.36
8573;BME280;4324;42.012;24.872;2023-05-10T08:34:55;99422.50;;;16.63;60.18
8573;BME280;4324;42.012;24.872;2023-05-10T08:37:23;99452.88;;;16.77;60.22
8573;BME280;4324;42.012;24.872;2023-05-10T08:39:50;99460.38;;;16.88;60.21
8573;BME280;4324;42.012;24.872;2023-05-10T08:42:19;99464.13;;;17.01;60.39
8573;BME280;4324;42.012;24.872;2023-05-10T08:44:50;99451.78;;;17.00;60.17
8573;BME280;4324;42.012;24.872;2023-05-10T08:47:18;99446.50;;;17.06;59.83
8573;BME280;4324;42.012;24.872;2023-05-10T08:49:47;99476.25;;;17.25;60.05
8573;BME280;4324;42.012;24.872;2023-05-10T08:52:17;99475.00;;;17.27;59.73
8573;BME280;4324;42.012;24.872;2023-05-10T08:54:44;99460.75;;;17.20;60.00
8573;BME280;4324;42.012;24.872;2023-05-10T08:57:11;99472.56;;;17.32;59.74
8573;BME280;4324;42.012;24.872;2023-05-10T08:59:38;99465.75;;;17.30;59.64
8573;BME280;4324;42.012;24.872;2023-05-10T09:02:06;99456.03;;;17.22;59.44
8573;BME280;4324;42.012;24.872;2023-05-10T09:04:35;99478.47;;;17.21;59.18
8573;BME280;4324;42.012;24.872;2023-05-10T09:07:03;99458.41;;;17.04;59.45
8573;BME280;4324;42.012;24.872;2023-05-10T09:09:31;99465.06;;;17.14;59.45
8573;BME280;4324;42.012;24.872;2023-05-10T09:11:58;99452.28;;;17.10;59.07
8573;BME280;4324;42.012;24.872;2023-05-10T09:14:25;99451.84;;;17.13;59.17
8573;BME280;4324;42.012;24.872;2023-05-10T09:16:52;99451.53;;;17.29;58.96
8573;BME280;4324;42.012;24.872;2023-05-10T09:19:20;99454.72;;;17.53;58.62
8573;BME280;4324;42.012;24.872;2023-05-10T09:21:48;99449.03;;;17.69;58.24
8573;BME280;4324;42.012;24.872;2023-05-10T09:24:17;99441.00;;;17.69;57.91
8573;BME280;4324;42.012;24.872;2023-05-10T09:26:46;99438.81;;;17.93;57.91
8573;BME280;4324;42.012;24.872;2023-05-10T09:29:14;99446.50;;;18.22;57.46
8573;BME280;4324;42.012;24.872;2023-05-10T09:31:46;99442.41;;;18.40;56.89
8573;BME280;4324;42.012;24.872;2023-05-10T09:34:17;99416.41;;;18.13;56.86
8573;BME280;4324;42.012;24.872;2023-05-10T09:36:52;99433.28;;;18.07;56.84
8573;BME280;4324;42.012;24.872;2023-05-10T09:39:29;99431.63;;;18.13;56.39
8573;BME280;4324;42.012;24.872;2023-05-10T09:41:58;99417.00;;;18.09;56.24
8573;BME280;4324;42.012;24.872;2023-05-10T09:44:26;99435.78;;;18.22;56.06
8573;BME280;4324;42.012;24.872;2023-05-10T09:46:53;99414.31;;;18.09;55.55
8573;BME280;4324;42.012;24.872;2023-05-10T09:49:21;99422.16;;;18.04;55.35
8573;BME280;4324;42.012;24.872;2023-05-10T09:51:59;99362.06;;;17.58;55.24
8573;BME280;4324;42.012;24.872;2023-05-10T09:54:28;99414.31;;;17.96;55.39
8573;BME280;4324;42.012;24.872;2023-05-10T09:56:55;99365.25;;;17.88;55.51
8573;BME280;4324;42.012;24.872;2023-05-10T09:59:25;99379.69;;;18.27;55.03
8573;BME280;4324;42.012;24.872;2023-05-10T10:01:52;99348.56;;;18.40;54.48
8573;BME280;4324;42.012;24.872;2023-05-10T10:04:20;99401.09;;;18.87;53.99
8573;BME280;4324;42.012;24.872;2023-05-10T10:06:58;99403.97;;;18.99;53.95
8573;BME280;4324;42.012;24.872;2023-05-10T10:09:25;99373.66;;;18.92;53.69
8573;BME280;4324;42.012;24.872;2023-05-10T10:11:54;99363.28;;;19.02;53.68
8573;BME280;4324;42.012;24.872;2023-05-10T10:14:22;99407.16;;;19.34;53.22
8573;BME280;4324;42.012;24.872;2023-05-10T10:16:49;99399.34;;;19.19;52.87
8573;BME280;4324;42.012;24.872;2023-05-10T10:19:16;99329.75;;;18.59;53.02
8573;BME280;4324;42.012;24.872;2023-05-10T10:21:43;99399.84;;;19.03;53.29
8573;BME280;4324;42.012;24.872;2023-05-10T10:24:10;99406.00;;;19.10;53.11
8573;BME280;4324;42.012;24.872;2023-05-10T10:26:38;99386.16;;;19.18;53.17
8573;BME280;4324;42.012;24.872;2023-05-10T10:29:16;99308.06;;;18.81;52.77
8573;BME280;4324;42.012;24.872;2023-05-10T10:31:47;99399.75;;;19.29;52.21
8573;BME280;4324;42.012;24.872;2023-05-10T10:34:25;99390.72;;;19.17;51.94
8573;BME280;4324;42.012;24.872;2023-05-10T10:36:54;99356.91;;;18.96;51.61
8573;BME280;4324;42.012;24.872;2023-05-10T10:39:24;99397.50;;;19.20;50.97
8573;BME280;4324;42.012;24.872;2023-05-10T10:41:53;99357.34;;;18.80;51.27
8573;BME280;4324;42.012;24.872;2023-05-10T10:44:36;99376.47;;;19.10;51.39
8573;BME280;4324;42.012;24.872;2023-05-10T10:47:05;99394.59;;;19.21;51.25
8573;BME280;4324;42.012;24.872;2023-05-10T10:49:38;99390.25;;;19.20;51.46
8573;BME280;4324;42.012;24.872;2023-05-10T10:52:20;99342.03;;;18.94;51.53
8573;BME280;4324;42.012;24.872;2023-05-10T10:54:50;99388.19;;;19.29;51.45
8573;BME280;4324;42.012;24.872;2023-05-10T10:57:19;99310.34;;;18.77;51.12
8573;BME280;4324;42.012;24.872;2023-05-10T10:59:49;99396.47;;;19.21;50.96
8573;BME280;4324;42.012;24.872;2023-05-10T11:02:34;99346.25;;;18.76;51.14
8573;BME280;4324;42.012;24.872;2023-05-10T11:05:38;99392.75;;;19.15;51.52
8573;BME280;4324;42.012;24.872;2023-05-10T11:08:19;99391.94;;;19.21;51.49
8573;BME280;4324;42.012;24.872;2023-05-10T11:11:08;99379.16;;;19.10;51.26
8573;BME280;4324;42.012;24.872;2023-05-10T11:13:39;99371.16;;;18.97;51.53
8573;BME280;4324;42.012;24.872;2023-05-10T11:16:18;99378.41;;;18.83;51.43
8573;BME280;4324;42.012;24.872;2023-05-10T11:18:53;99365.66;;;18.52;51.42
8573;BME280;4324;42.012;24.872;2023-05-10T11:21:20;99360.69;;;18.42;51.38
8573;BME280;4324;42.012;24.872;2023-05-10T11:23:49;99350.81;;;18.23;51.16
8573;BME280;4324;42.012;24.872;2023-05-10T11:26:16;99368.78;;;18.35;50.33
8573;BME280;4324;42.012;24.872;2023-05-10T11:28:44;99382.19;;;18.35;50.50
8573;BME280;4324;42.012;24.872;2023-05-10T11:31:14;99391.44;;;18.26;51.02
8573;BME280;4324;42.012;24.872;2023-05-10T11:33:46;99390.00;;;18.24;51.09
8573;BME280;4324;42.012;24.872;2023-05-10T11:36:15;99370.00;;;18.06;50.83
8573;BME280;4324;42.012;24.872;2023-05-10T11:38:43;99383.00;;;18.03;50.22
8573;BME280;4324;42.012;24.872;2023-05-10T11:41:10;99378.84;;;17.94;50.47
8573;BME280;4324;42.012;24.872;2023-05-10T11:43:39;99335.91;;;17.60;50.72
8573;BME280;4324;42.012;24.872;2023-05-10T11:46:06;99380.28;;;17.89;50.96
8573;BME280;4324;42.012;24.872;2023-05-10T11:48:34;99378.44;;;17.97;50.94
8573;BME280;4324;42.012;24.872;2023-05-10T11:51:02;99373.28;;;17.95;50.47
8573;BME280;4324;42.012;24.872;2023-05-10T11:53:30;99349.81;;;18.04;50.66
8573;BME280;4324;42.012;24.872;2023-05-10T11:56:02;99364.19;;;18.56;50.57
8573;BME280;4324;42.012;24.872;2023-05-10T11:58:30;99329.09;;;18.57;50.25
8573;BME280;4324;42.012;24.872;2023-05-10T12:00:57;99355.47;;;18.94;49.96
8573;BME280;4324;42.012;24.872;2023-05-10T12:03:25;99366.16;;;19.07;50.06
8573;BME280;4324;42.012;24.872;2023-05-10T12:05:52;99350.63;;;19.16;49.91
8573;BME280;4324;42.012;24.872;2023-05-10T12:08:23;99293.31;;;18.97;49.58
8573;BME280;4324;42.012;24.872;2023-05-10T12:10:50;99274.75;;;18.95;49.59
8573;BME280;4324;42.012;24.872;2023-05-10T12:13:18;99331.22;;;19.58;49.47
8573;BME280;4324;42.012;24.872;2023-05-10T12:15:46;99352.72;;;19.90;48.87
8573;BME280;4324;42.012;24.872;2023-05-10T12:18:13;99348.69;;;20.06;48.77
8573;BME280;4324;42.012;24.872;2023-05-10T12:20:41;99337.31;;;20.04;48.61
8573;BME280;4324;42.012;24.872;2023-05-10T12:23:09;99357.63;;;20.00;48.61
8573;BME280;4324;42.012;24.872;2023-05-10T12:25:37;99335.81;;;19.83;48.47
8573;BME280;4324;42.012;24.872;2023-05-10T12:28:07;99340.38;;;19.82;48.37
8573;BME280;4324;42.012;24.872;2023-05-10T12:30:35;99355.63;;;19.89;48.39
8573;BME280;4324;42.012;24.872;2023-05-10T12:33:08;99346.75;;;19.88;48.73
8573;BME280;4324;42.012;24.872;2023-05-10T12:35:44;99340.38;;;19.82;48.86
8573;BME280;4324;42.012;24.872;2023-05-10T12:38:27;99334.88;;;19.71;48.50
8573;BME280;4324;42.012;24.872;2023-05-10T12:40:58;99333.44;;;19.68;48.57
8573;BME280;4324;42.012;24.872;2023-05-10T12:43:25;99307.50;;;19.49;49.02
8573;BME280;4324;42.012;24.872;2023-05-10T12:45:52;99296.31;;;19.52;48.83
8573;BME280;4324;42.012;24.872;2023-05-10T12:48:19;99258.78;;;19.45;48.80
8573;BME280;4324;42.012;24.872;2023-05-10T12:50:46;99269.28;;;19.78;48.45
8573;BME280;4324;42.012;24.872;2023-05-10T12:53:14;99290.94;;;20.09;48.44
8573;BME280;4324;42.012;24.872;2023-05-10T12:55:42;99308.94;;;20.33;48.04
8573;BME280;4324;42.012;24.872;2023-05-10T12:58:10;99246.69;;;20.11;47.94
8573;BME280;4324;42.012;24.872;2023-05-10T13:00:37;99283.03;;;20.57;48.22
8573;BME280;4324;42.012;24.872;2023-05-10T13:03:04;99295.59;;;20.82;48.00
8573;BME280;4324;42.012;24.872;2023-05-10T13:05:31;99296.47;;;20.94;47.92
8573;BME280;4324;42.012;24.872;2023-05-10T13:07:58;99296.00;;;21.15;47.52
8573;BME280;4324;42.012;24.872;2023-05-10T13:10:25;99272.63;;;21.27;47.29
8573;BME280;4324;42.012;24.872;2023-05-10T13:12:52;99278.22;;;21.44;47.20
8573;BME280;4324;42.012;24.872;2023-05-10T13:15:20;99269.00;;;21.52;46.88
8573;BME280;4324;42.012;24.872;2023-05-10T13:17:47;99282.13;;;21.60;46.85
8573;BME280;4324;42.012;24.872;2023-05-10T13:20:15;99234.56;;;21.24;47.05